Time;durP1;ratioP1;P1;durP2;ratioP2;P2;SDS_P1;SDS_P2;PMS_P1;PMS_P2;Temp;Humidity;BMP_temperature;BMP_pressure;BME280_temperature;BME280_humidity;BME280_pressure;Samples;Min_cycle;Max_cycle;Signal;HPM_P1;HPM_P2
2021/07/06 00:09:12;;;;;;;2.85;1.25;;;18.90;99.90;;;;;;6644523;89;20222;-82
2021/07/06 00:19:13;;;;;;;2.75;1.45;;;18.80;99.90;;;;;;6643496;89;20201;-82
2021/07/06 00:29:13;;;;;;;5.55;1.52;;;18.80;99.90;;;;;;6643559;89;20192;-81
2021/07/06 00:39:14;;;;;;;7.43;1.40;;;18.70;99.90;;;;;;6641106;89;20194;-82
2021/07/06 00:49:15;;;;;;;2.90;1.10;;;18.70;99.90;;;;;;6644152;89;20215;-81
2021/07/06 00:59:18;;;;;;;1.98;1.10;;;18.80;99.90;;;;;;6644388;89;20637;-82
2021/07/06 01:09:18;;;;;;;2.90;1.00;;;18.70;99.90;;;;;;6639589;89;20218;-80
2021/07/06 01:19:19;;;;;;;3.22;1.30;;;18.60;99.90;;;;;;6628706;89;20183;-81
2021/07/06 01:29:20;;;;;;;4.40;1.37;;;18.60;99.90;;;;;;6646050;88;20213;-81
2021/07/06 01:39:21;;;;;;;3.58;1.42;;;18.50;99.90;;;;;;6628150;89;20166;-82
2021/07/06 01:49:22;;;;;;;2.67;1.30;;;18.40;99.90;;;;;;6628091;89;20204;-81
2021/07/06 01:59:22;;;;;;;2.30;1.30;;;18.40;99.90;;;;;;6629386;89;20182;-81
2021/07/06 02:09:23;;;;;;;4.18;1.35;;;18.40;99.90;;;;;;6627854;89;20197;-81
2021/07/06 02:19:23;;;;;;;5.32;1.55;;;18.40;99.90;;;;;;6627644;89;20667;-83
2021/07/06 02:29:24;;;;;;;4.25;1.33;;;18.40;99.90;;;;;;6644191;88;20169;-81
2021/07/06 02:39:24;;;;;;;4.30;1.62;;;18.40;99.90;;;;;;6628264;89;20201;-81
2021/07/06 02:49:25;;;;;;;3.45;1.30;;;18.40;99.90;;;;;;6628751;89;20196;-81
2021/07/06 02:59:25;;;;;;;5.07;1.45;;;18.40;99.90;;;;;;6634515;89;21042;-82
2021/07/06 03:09:26;;;;;;;6.23;1.70;;;18.40;99.90;;;;;;6633773;89;20232;-82
2021/07/06 03:19:26;;;;;;;3.05;1.20;;;18.40;99.90;;;;;;6633048;89;20201;-81
2021/07/06 03:29:27;;;;;;;2.90;1.27;;;18.50;99.90;;;;;;6633342;89;20191;-81
2021/07/06 03:39:27;;;;;;;2.67;1.53;;;18.50;99.90;;;;;;6633058;89;20219;-82
2021/07/06 03:49:28;;;;;;;4.68;1.40;;;18.50;99.90;;;;;;6633174;89;20550;-84
2021/07/06 03:59:28;;;;;;;3.35;1.25;;;18.50;99.90;;;;;;6630183;89;20350;-84
2021/07/06 04:09:29;;;;;;;5.30;1.30;;;18.50;99.90;;;;;;6627577;89;20197;-81
2021/07/06 04:19:29;;;;;;;3.15;1.30;;;18.60;99.90;;;;;;6645461;88;20375;-83
2021/07/06 04:29:30;;;;;;;3.75;1.33;;;18.70;99.90;;;;;;6629015;89;20842;-82
2021/07/06 04:39:31;;;;;;;3.93;1.23;;;18.80;99.90;;;;;;6627690;89;20171;-83
2021/07/06 04:49:31;;;;;;;2.35;1.55;;;18.80;99.90;;;;;;6628503;89;20205;-83
2021/07/06 04:59:32;;;;;;;4.95;1.35;;;18.80;99.90;;;;;;6627263;89;20215;-82
2021/07/06 05:09:32;;;;;;;3.53;1.80;;;18.70;99.90;;;;;;6640867;89;20166;-82
2021/07/06 05:19:33;;;;;;;4.28;1.62;;;18.50;99.90;;;;;;6679292;89;20983;-82
2021/07/06 05:29:33;;;;;;;5.93;2.00;;;18.10;99.90;;;;;;6690030;89;20207;-79
2021/07/06 05:39:34;;;;;;;3.85;1.95;;;18.00;99.90;;;;;;6695995;88;20273;-79
2021/07/06 05:49:34;;;;;;;5.25;2.33;;;17.90;99.90;;;;;;6657420;88;20205;-82
2021/07/06 05:59:35;;;;;;;3.37;2.03;;;17.80;99.90;;;;;;6712671;88;20202;-82
2021/07/06 06:09:36;;;;;;;6.55;2.20;;;17.80;99.90;;;;;;6638149;88;20518;-81
2021/07/06 06:19:36;;;;;;;10.18;2.50;;;17.80;99.90;;;;;;6633475;88;20208;-79
2021/07/06 06:29:37;;;;;;;4.43;2.20;;;17.80;99.90;;;;;;6634748;88;20287;-77
2021/07/06 06:39:37;;;;;;;7.32;2.50;;;17.90;99.90;;;;;;6640212;89;20191;-78
2021/07/06 06:49:38;;;;;;;5.75;2.37;;;17.90;99.90;;;;;;6632122;89;20175;-79
2021/07/06 06:59:38;;;;;;;5.87;2.60;;;17.90;99.90;;;;;;6647631;89;20202;-79
2021/07/06 07:09:39;;;;;;;4.18;2.40;;;18.00;99.90;;;;;;6645061;89;20187;-80
2021/07/06 07:19:40;;;;;;;8.23;2.83;;;17.90;99.90;;;;;;6659134;88;20297;-79
2021/07/06 07:29:41;;;;;;;10.80;2.80;;;17.90;99.90;;;;;;6712373;88;20183;-78
2021/07/06 07:39:43;;;;;;;6.30;2.92;;;17.80;99.90;;;;;;6686154;88;20216;-80
2021/07/06 07:49:44;;;;;;;4.72;3.00;;;17.80;99.90;;;;;;6643035;88;20191;-79
2021/07/06 07:59:45;;;;;;;5.32;2.50;;;17.80;99.90;;;;;;6628476;88;20742;-80
2021/07/06 08:09:45;;;;;;;5.53;2.25;;;17.90;99.90;;;;;;6623383;89;20198;-80
2021/07/06 08:19:46;;;;;;;4.95;2.00;;;18.00;99.90;;;;;;6631405;89;20446;-80
2021/07/06 08:29:47;;;;;;;2.28;1.60;;;18.20;99.90;;;;;;6656929;88;20210;-81
2021/07/06 08:39:47;;;;;;;4.70;1.33;;;18.50;99.90;;;;;;6638676;89;20218;-80
2021/07/06 08:49:48;;;;;;;2.40;1.40;;;18.50;99.90;;;;;;6633506;89;20198;-80
2021/07/06 08:59:49;;;;;;;2.33;1.20;;;18.60;99.90;;;;;;6647767;88;20203;-82
2021/07/06 09:09:50;;;;;;;4.55;1.02;;;18.80;99.90;;;;;;6620238;89;20218;-80
2021/07/06 09:19:54;;;;;;;1.55;0.80;;;19.00;99.90;;;;;;6604202;90;21038;-80
2021/07/06 09:30:08;;;;;;;1.45;0.90;;;19.20;99.90;;;;;;6601067;89;20286;-81
2021/07/06 09:40:23;;;;;;;1.30;0.90;;;19.50;99.90;;;;;;6613185;90;20248;-80
2021/07/06 09:50:27;;;;;;;2.42;0.80;;;19.70;99.90;;;;;;6618314;89;20194;-81
2021/07/06 10:00:31;;;;;;;1.65;1.10;;;19.70;99.90;;;;;;6617493;90;20198;-81
2021/07/06 10:10:32;;;;;;;2.47;0.88;;;19.80;99.90;;;;;;6622606;89;20223;-80
2021/07/06 10:20:35;;;;;;;2.43;0.80;;;20.10;99.90;;;;;;6628597;89;20178;-81
2021/07/06 10:30:40;;;;;;;4.03;0.88;;;20.40;99.90;;;;;;6614929;90;20547;-82
2021/07/06 10:40:42;;;;;;;1.33;0.68;;;20.90;99.90;;;;;;6615025;90;20349;-80
2021/07/06 10:50:44;;;;;;;1.48;0.60;;;21.50;99.90;;;;;;6611693;90;20182;-80
2021/07/06 11:00:45;;;;;;;0.90;0.50;;;22.20;99.90;;;;;;6619608;89;20190;-78
2021/07/06 11:10:49;;;;;;;1.17;0.60;;;23.00;99.90;;;;;;6619282;89;20195;-79
2021/07/06 11:20:50;;;;;;;3.05;0.50;;;24.20;99.90;;;;;;6619048;89;20900;-79
2021/07/06 11:30:56;;;;;;;3.30;0.67;;;24.70;99.90;;;;;;6613496;89;20238;-79
2021/07/06 11:40:59;;;;;;;2.67;0.52;;;25.00;99.90;;;;;;6615427;89;20329;-79
2021/07/06 11:51:03;;;;;;;1.40;0.60;;;24.90;99.90;;;;;;6637876;88;20324;-79
2021/07/06 12:01:09;;;;;;;1.48;0.55;;;24.90;97.30;;;;;;6619149;89;20176;-80
2021/07/06 12:11:18;;;;;;;1.80;0.60;;;25.20;97.90;;;;;;6610006;89;20681;-78
2021/07/06 12:21:32;;;;;;;2.25;0.60;;;24.50;97.90;;;;;;6607127;90;20281;-80
2021/07/06 12:31:34;;;;;;;1.58;0.50;;;24.20;98.20;;;;;;6612613;89;20224;-79
2021/07/06 12:41:48;;;;;;;1.87;0.50;;;24.00;97.70;;;;;;6609191;90;20216;-79
2021/07/06 12:52:07;;;;;;;1.47;0.57;;;24.30;97.90;;;;;;6610231;90;20191;-80
2021/07/06 13:02:22;;;;;;;3.25;0.70;;;23.70;98.50;;;;;;6605788;90;20186;-80
2021/07/06 13:12:26;;;;;;;1.42;0.52;;;23.40;99.00;;;;;;6625666;89;20211;-79
2021/07/06 13:22:27;;;;;;;2.15;0.40;;;23.00;99.50;;;;;;6628248;89;20179;-79
2021/07/06 13:32:28;;;;;;;2.53;0.50;;;23.50;98.70;;;;;;6628739;89;20272;-80
2021/07/06 13:42:29;;;;;;;2.47;0.60;;;23.20;98.60;;;;;;6642989;88;20304;-79
2021/07/06 13:52:29;;;;;;;3.72;0.62;;;22.90;98.50;;;;;;6628410;89;20182;-80
2021/07/06 14:02:30;;;;;;;2.35;0.60;;;22.70;99.90;;;;;;6642709;88;20191;-80
2021/07/06 14:12:30;;;;;;;5.68;0.85;;;22.60;99.90;;;;;;6628589;89;20197;-81
2021/07/06 14:22:31;;;;;;;3.08;0.82;;;22.30;99.70;;;;;;6628956;89;20251;-79
2021/07/06 14:32:38;;;;;;;2.75;0.70;;;22.30;99.90;;;;;;6641318;88;20214;-80
2021/07/06 14:42:39;;;;;;;4.25;0.70;;;22.60;99.90;;;;;;6613152;89;20257;-81
2021/07/06 14:52:39;;;;;;;7.07;1.20;;;22.40;99.90;;;;;;6612653;90;20592;-80
2021/07/06 15:02:40;;;;;;;2.67;0.70;;;22.70;99.50;;;;;;6614307;90;20195;-80
2021/07/06 15:12:41;;;;;;;4.00;0.67;;;23.50;98.50;;;;;;6612506;90;20267;-82
2021/07/06 15:22:42;;;;;;;3.15;0.70;;;23.60;98.30;;;;;;6600421;90;20233;-81
2021/07/06 15:32:43;;;;;;;3.83;0.73;;;24.20;97.20;;;;;;6594912;90;20322;-79
2021/07/06 15:42:43;;;;;;;2.42;0.70;;;23.80;97.60;;;;;;6591509;90;20199;-79
2021/07/06 15:52:44;;;;;;;5.78;1.23;;;23.50;97.80;;;;;;6595314;89;20271;-79
2021/07/06 16:02:45;;;;;;;8.82;0.90;;;22.80;97.10;;;;;;6610930;90;20275;-78
2021/07/06 16:12:47;;;;;;;3.75;1.00;;;22.90;97.80;;;;;;6614321;89;20252;-79
2021/07/06 16:22:48;;;;;;;3.90;1.00;;;23.00;96.50;;;;;;6646638;78;20212;-77
2021/07/06 16:32:50;;;;;;;4.22;0.90;;;22.70;95.00;;;;;;6632953;89;20275;-77
2021/07/06 16:42:51;;;;;;;4.37;1.00;;;22.40;95.80;;;;;;6618012;89;20237;-76
2021/07/06 18:05:05;;;;;;;5.25;1.10;;;21.60;99.90;;;;;;6596954;90;20182;-77
2021/07/06 18:15:06;;;;;;;4.40;1.10;;;22.10;99.90;;;;;;6600136;89;20694;-77
2021/07/06 18:25:08;;;;;;;3.75;1.05;;;21.70;99.90;;;;;;6609930;89;20206;-77
2021/07/06 18:35:09;;;;;;;6.97;1.10;;;21.40;99.90;;;;;;6596789;89;20708;-76
2021/07/06 18:45:10;;;;;;;3.83;1.27;;;21.40;99.90;;;;;;6603116;89;20433;-77
2021/07/06 18:55:11;;;;;;;6.15;1.10;;;21.80;99.90;;;;;;6614007;89;20697;-77
2021/07/06 19:05:18;;;;;;;6.97;1.25;;;21.30;99.90;;;;;;6600115;89;20210;-76
2021/07/06 19:15:19;;;;;;;6.32;1.20;;;21.10;99.90;;;;;;6599181;89;20266;-79
2021/07/06 19:35:24;;;;;;;6.45;1.40;;;20.50;99.90;;;;;;6602988;90;20687;-78
2021/07/06 19:45:24;;;;;;;4.53;1.25;;;20.20;99.90;;;;;;6605988;90;20191;-78
2021/07/06 19:55:25;;;;;;;6.83;1.40;;;20.00;99.90;;;;;;6604261;90;20281;-78
2021/07/06 20:05:27;;;;;;;5.68;1.30;;;19.80;99.90;;;;;;6620470;89;20210;-78
2021/07/06 20:15:28;;;;;;;5.68;1.33;;;19.50;99.90;;;;;;6609481;90;20217;-78
2021/07/06 20:25:28;;;;;;;6.25;1.20;;;19.40;99.90;;;;;;6613174;90;20223;-80
2021/07/06 20:35:29;;;;;;;4.70;1.20;;;19.40;99.90;;;;;;6611075;89;20265;-80
2021/07/06 20:45:30;;;;;;;7.28;1.58;;;19.30;99.90;;;;;;6621207;89;20233;-83
2021/07/06 20:55:32;;;;;;;5.23;1.40;;;19.20;99.90;;;;;;6619567;89;20206;-79
2021/07/06 21:05:33;;;;;;;5.55;1.30;;;19.00;99.90;;;;;;6619824;90;20275;-79
2021/07/06 21:15:33;;;;;;;10.00;1.40;;;18.80;99.90;;;;;;6605701;90;20200;-79
2021/07/06 21:25:34;;;;;;;5.43;1.58;;;18.50;99.90;;;;;;6603981;90;20522;-79
2021/07/06 21:35:35;;;;;;;6.40;1.70;;;18.40;99.90;;;;;;6613325;89;20268;-78
2021/07/06 21:45:35;;;;;;;7.45;1.40;;;18.60;99.90;;;;;;6619231;89;20664;-79
2021/07/06 21:55:36;;;;;;;4.50;1.60;;;18.40;99.90;;;;;;6616754;89;20348;-77
2021/07/06 22:05:36;;;;;;;4.65;1.65;;;18.20;99.90;;;;;;6617253;89;20242;-78
2021/07/06 22:25:42;;;;;;;5.93;1.70;;;17.90;99.90;;;;;;6652764;89;20299;-80
2021/07/06 22:35:42;;;;;;;7.55;1.62;;;17.50;99.90;;;;;;6652295;89;20186;-80
2021/07/06 22:45:43;;;;;;;4.95;1.70;;;17.00;99.90;;;;;;6654913;89;20236;-80
2021/07/06 22:55:43;;;;;;;8.13;1.67;;;16.80;99.90;;;;;;6656168;89;20210;-80
2021/07/06 23:05:44;;;;;;;6.15;1.55;;;16.80;99.90;;;;;;6655979;89;20509;-81
2021/07/06 23:15:45;;;;;;;7.57;2.33;;;16.70;99.90;;;;;;6653809;89;20760;-80
2021/07/06 23:25:45;;;;;;;7.30;1.93;;;16.60;99.90;;;;;;6656026;89;20534;-79
2021/07/06 23:35:46;;;;;;;15.18;2.10;;;16.60;99.90;;;;;;6659707;89;20181;-81
2021/07/06 23:45:46;;;;;;;6.07;1.42;;;16.80;99.90;;;;;;6657714;89;20221;-81
2021/07/06 23:55:47;;;;;;;5.73;1.63;;;16.60;99.90;;;;;;6690535;89;20843;-80
